Time;durP1;ratioP1;P1;durP2;ratioP2;P2;SDS_P1;SDS_P2;PMS_P1;PMS_P2;Temp;Humidity;BMP_temperature;BMP_pressure;BME280_temperature;BME280_humidity;BME280_pressure;Samples;Min_cycle;Max_cycle;Signal;HPM_P1;HPM_P2
2023/12/02 00:00:23;;;;;;;8.93;4.40;;;;;;;20.70;44.11;98639.38;4635199;30;20059;-59
2023/12/02 00:02:52;;;;;;;6.57;3.50;;;;;;;20.67;44.15;98631.69;4636738;30;20066;-58
2023/12/02 00:05:21;;;;;;;5.22;3.75;;;;;;;20.64;44.36;98607.88;4636035;30;20518;-70
2023/12/02 00:07:48;;;;;;;7.15;3.88;;;;;;;20.59;44.29;98599.56;4634860;30;20055;-70
2023/12/02 00:10:16;;;;;;;7.70;4.30;;;;;;;20.54;44.57;98596.63;4635071;30;20055;-71
2023/12/02 00:12:43;;;;;;;7.10;4.15;;;;;;;20.50;44.53;98616.88;4637249;30;20062;-65
2023/12/02 00:15:11;;;;;;;6.63;3.38;;;;;;;20.45;44.67;98633.50;4635229;30;20058;-63
2023/12/02 00:17:38;;;;;;;9.68;3.83;;;;;;;20.42;44.57;98636.59;4634775;30;20055;-61
2023/12/02 00:20:06;;;;;;;10.10;4.35;;;;;;;20.39;44.55;98634.28;4626257;30;20059;-59
2023/12/02 00:22:33;;;;;;;7.70;4.45;;;;;;;20.39;44.77;98628.09;4635348;30;20062;-68
2023/12/02 00:25:01;;;;;;;6.05;3.33;;;;;;;20.38;44.84;98629.13;4635479;30;20514;-68
2023/12/02 00:27:28;;;;;;;6.80;3.55;;;;;;;20.35;44.78;98634.88;4647822;30;20059;-68
2023/12/02 00:29:55;;;;;;;8.70;4.63;;;;;;;20.31;45.03;98650.53;4647750;30;20412;-68
2023/12/02 00:32:23;;;;;;;6.85;3.60;;;;;;;20.30;45.03;98658.81;4649560;30;20063;-68
2023/12/02 00:34:56;;;;;;;7.85;3.78;;;;;;;20.28;44.94;98664.34;4635118;30;20051;-71
2023/12/02 00:37:25;;;;;;;8.30;4.25;;;;;;;20.28;45.08;98660.84;4634997;30;20058;-70
2023/12/02 00:39:52;;;;;;;9.45;3.72;;;;;;;20.27;45.29;98657.31;4633926;30;20067;-70
2023/12/02 00:42:19;;;;;;;6.60;4.03;;;;;;;20.25;45.43;98645.91;4637804;30;20540;-70
2023/12/02 00:44:47;;;;;;;7.28;3.80;;;;;;;20.24;45.32;98641.56;4631439;30;20416;-69
2023/12/02 00:47:14;;;;;;;7.10;4.07;;;;;;;20.22;45.36;98639.09;4627240;30;20062;-68
2023/12/02 00:49:42;;;;;;;8.48;3.65;;;;;;;20.21;45.25;98645.47;4630978;30;20051;-70
2023/12/02 00:52:09;;;;;;;9.05;3.70;;;;;;;20.19;45.24;98641.31;4637410;30;20527;-70
2023/12/02 00:54:37;;;;;;;8.55;4.25;;;;;;;20.16;45.40;98636.31;4634574;30;20062;-70
2023/12/02 00:57:04;;;;;;;5.95;3.78;;;;;;;20.15;45.46;98631.97;4635071;30;20066;-69
2023/12/02 00:59:32;;;;;;;10.02;4.05;;;;;;;20.13;45.67;98634.84;4634205;30;20129;-70
2023/12/02 01:01:59;;;;;;;11.48;4.32;;;;;;;20.11;45.66;98639.59;4637373;30;20423;-70
2023/12/02 01:04:26;;;;;;;9.75;4.00;;;;;;;20.09;45.63;98625.50;4638008;30;20055;-70
2023/12/02 01:06:54;;;;;;;8.48;4.00;;;;;;;20.08;45.68;98623.84;4634698;30;20062;-70
2023/12/02 01:09:21;;;;;;;8.85;3.47;;;;;;;20.07;45.73;98615.97;4634869;30;20063;-70
2023/12/02 01:11:49;;;;;;;8.55;4.28;;;;;;;20.05;45.64;98602.72;4637325;30;20059;-70
2023/12/02 01:14:16;;;;;;;8.68;3.95;;;;;;;20.03;45.33;98604.78;4631039;30;20103;-70
2023/12/02 01:16:43;;;;;;;7.28;3.75;;;;;;;20.03;45.41;98601.28;4634535;30;20504;-68
2023/12/02 01:19:11;;;;;;;6.15;3.38;;;;;;;20.01;45.55;98606.81;4634960;30;20133;-68
2023/12/02 01:21:38;;;;;;;6.18;3.50;;;;;;;20.01;45.59;98604.13;4637373;30;20059;-67
2023/12/02 01:24:06;;;;;;;8.18;3.85;;;;;;;19.98;45.65;98608.03;4638293;30;20059;-67
2023/12/02 01:26:33;;;;;;;7.68;3.65;;;;;;;19.97;45.65;98617.13;4634604;30;20059;-67
2023/12/02 01:29:01;;;;;;;8.68;4.00;;;;;;;19.97;45.79;98605.53;4634625;30;20055;-67
2023/12/02 01:31:28;;;;;;;8.90;3.42;;;;;;;19.96;45.80;98623.50;4637134;30;20415;-68
2023/12/02 01:33:56;;;;;;;9.75;3.72;;;;;;;19.94;46.02;98622.88;4638249;30;20082;-67
2023/12/02 01:36:23;;;;;;;8.23;4.05;;;;;;;19.95;45.96;98623.69;4634137;30;20059;-68
2023/12/02 01:38:51;;;;;;;8.30;3.50;;;;;;;19.94;45.94;98625.56;4634322;30;20059;-70
2023/12/02 01:41:18;;;;;;;5.85;3.08;;;;;;;19.93;45.96;98625.72;4636722;30;20059;-69
2023/12/02 01:43:45;;;;;;;6.78;3.05;;;;;;;19.92;46.14;98622.22;4634634;30;20055;-69
2023/12/02 01:46:15;;;;;;;8.50;3.38;;;;;;;19.91;46.17;98623.25;4634818;30;20062;-67
2023/12/02 01:48:43;;;;;;;7.22;2.92;;;;;;;19.90;46.31;98628.81;4634668;30;20055;-67
2023/12/02 01:51:10;;;;;;;8.25;3.40;;;;;;;19.89;46.44;98619.06;4637522;30;20066;-67
2023/12/02 01:53:41;;;;;;;8.30;3.95;;;;;;;19.88;46.51;98628.97;4631259;30;20066;-68
2023/12/02 01:56:09;;;;;;;7.38;3.58;;;;;;;19.88;46.43;98638.91;4627864;30;20051;-69
2023/12/02 01:58:37;;;;;;;10.07;3.97;;;;;;;19.86;46.67;98633.72;4634622;30;20062;-69
2023/12/02 02:01:05;;;;;;;8.35;3.97;;;;;;;19.86;46.62;98651.69;4635326;30;20054;-69
2023/12/02 02:03:32;;;;;;;6.63;4.18;;;;;;;19.85;46.50;98658.06;4634171;30;20499;-70
2023/12/02 02:06:00;;;;;;;7.47;3.72;;;;;;;19.84;46.65;98659.91;4634028;30;20075;-68
2023/12/02 02:08:27;;;;;;;6.47;3.63;;;;;;;19.84;46.63;98656.41;4634427;30;20067;-68
2023/12/02 02:10:56;;;;;;;8.02;4.35;;;;;;;19.82;46.34;98661.97;4639108;30;20058;-68
2023/12/02 02:13:25;;;;;;;7.95;4.47;;;;;;;19.81;46.56;98665.69;4637602;30;20063;-68
2023/12/02 02:15:53;;;;;;;6.05;3.70;;;;;;;19.81;46.46;98675.56;4637284;30;20058;-69
2023/12/02 02:18:20;;;;;;;6.32;3.88;;;;;;;19.80;46.71;98669.38;4638041;30;20058;-70
2023/12/02 02:20:50;;;;;;;6.70;3.47;;;;;;;19.80;46.36;98658.63;4639825;30;20058;-70
2023/12/02 02:23:19;;;;;;;7.55;3.65;;;;;;;19.78;46.35;98622.28;4637257;30;20380;-69
2023/12/02 02:25:49;;;;;;;10.52;3.85;;;;;;;19.78;46.40;98617.72;4637240;30;20078;-67
2023/12/02 02:28:34;;;;;;;6.68;4.82;;;;;;;19.76;46.50;98633.19;4650997;30;20055;-67
2023/12/02 02:31:02;;;;;;;6.05;3.90;;;;;;;19.76;46.37;98635.88;4634007;30;20142;-67
2023/12/02 02:33:31;;;;;;;6.10;3.33;;;;;;;19.75;46.38;98623.47;4629925;30;20063;-67
2023/12/02 02:35:59;;;;;;;5.68;4.03;;;;;;;19.75;46.37;98635.03;4636785;30;20055;-69
2023/12/02 02:38:26;;;;;;;8.20;4.28;;;;;;;19.73;46.39;98599.50;4640349;30;20063;-69
2023/12/02 02:40:54;;;;;;;6.93;3.45;;;;;;;19.73;46.50;98599.50;4637027;30;20056;-69
2023/12/02 02:43:21;;;;;;;7.18;3.67;;;;;;;19.73;46.56;98593.31;4636807;30;20059;-69
2023/12/02 02:45:49;;;;;;;7.13;3.97;;;;;;;19.72;46.46;98615.78;4637092;30;20069;-67
2023/12/02 02:48:17;;;;;;;9.63;4.35;;;;;;;19.72;46.49;98587.06;4650627;30;20066;-67
2023/12/02 02:50:45;;;;;;;6.72;3.95;;;;;;;19.70;46.41;98583.75;4636874;30;20059;-67
2023/12/02 02:53:12;;;;;;;5.78;3.63;;;;;;;19.70;46.54;98602.56;4636712;30;20404;-67
2023/12/02 02:55:39;;;;;;;5.82;3.55;;;;;;;19.69;46.32;98611.63;4636498;30;20504;-69
2023/12/02 02:58:07;;;;;;;6.45;3.92;;;;;;;19.69;46.53;98595.53;4636645;30;20062;-69
2023/12/02 03:00:34;;;;;;;7.47;3.50;;;;;;;19.68;46.36;98575.06;4636677;30;20063;-69
2023/12/02 03:03:02;;;;;;;6.63;3.50;;;;;;;19.67;46.53;98578.78;4649073;30;20064;-69
2023/12/02 03:05:29;;;;;;;6.57;3.55;;;;;;;19.67;46.59;98553.78;4636420;30;20062;-67
2023/12/02 03:07:56;;;;;;;5.43;3.50;;;;;;;19.66;46.46;98554.81;4637389;30;20066;-67
2023/12/02 03:10:24;;;;;;;5.80;3.47;;;;;;;19.66;46.50;98561.00;4648709;30;20081;-67
2023/12/02 03:12:51;;;;;;;7.93;3.75;;;;;;;19.65;46.42;98556.66;4636637;30;20051;-67
2023/12/02 03:15:19;;;;;;;5.05;3.33;;;;;;;19.65;46.54;98558.53;4636809;30;20059;-67
2023/12/02 03:17:47;;;;;;;5.05;3.13;;;;;;;19.64;46.56;98563.03;4640026;30;20507;-69
2023/12/02 03:20:15;;;;;;;4.93;3.17;;;;;;;19.64;46.68;98563.03;4636166;30;20051;-69
2023/12/02 03:22:42;;;;;;;5.45;3.42;;;;;;;19.65;46.41;98553.97;4635614;30;20527;-69
2023/12/02 03:25:11;;;;;;;5.82;3.67;;;;;;;19.63;46.67;98564.06;4636568;30;20063;-69
2023/12/02 03:27:38;;;;;;;6.22;3.50;;;;;;;19.62;46.59;98553.53;4639185;30;20095;-67
2023/12/02 03:30:06;;;;;;;6.80;4.03;;;;;;;19.62;46.51;98553.53;4636437;30;20063;-67
2023/12/02 03:32:38;;;;;;;5.00;3.10;;;;;;;19.62;46.49;98551.66;4636342;30;20055;-67
2023/12/02 03:35:09;;;;;;;7.20;3.97;;;;;;;19.60;46.68;98542.94;4636916;30;20073;-67
2023/12/02 03:37:37;;;;;;;5.65;3.92;;;;;;;19.60;46.78;98508.03;4636149;30;20063;-69
2023/12/02 03:40:06;;;;;;;6.43;3.47;;;;;;;19.60;46.63;98497.31;4635658;30;20059;-69
2023/12/02 03:42:33;;;;;;;5.43;3.38;;;;;;;19.59;46.56;98487.59;4635777;30;20082;-69
2023/12/02 03:45:02;;;;;;;7.22;4.10;;;;;;;19.59;46.70;98484.09;4637087;30;20059;-69
2023/12/02 03:47:29;;;;;;;6.50;3.70;;;;;;;19.58;46.75;98464.47;4637098;30;20051;-67
2023/12/02 03:49:56;;;;;;;4.88;3.30;;;;;;;19.58;46.74;98477.88;4632386;30;20059;-67
2023/12/02 03:52:24;;;;;;;7.68;3.78;;;;;;;19.57;46.86;98486.97;4635916;30;20059;-66
2023/12/02 03:54:51;;;;;;;4.93;3.50;;;;;;;19.58;46.62;98487.78;4637082;30;20496;-66
2023/12/02 03:57:19;;;;;;;5.65;3.65;;;;;;;19.56;46.71;98493.34;4637442;30;20058;-69
2023/12/02 03:59:47;;;;;;;5.72;3.58;;;;;;;19.57;46.72;98516.50;4635599;30;20055;-69
2023/12/02 04:02:14;;;;;;;4.43;3.22;;;;;;;19.56;46.74;98522.84;4635722;30;20059;-69
2023/12/02 04:04:42;;;;;;;4.85;3.45;;;;;;;19.55;46.62;98513.16;4636705;30;20063;-68
2023/12/02 04:07:10;;;;;;;6.53;3.50;;;;;;;19.55;46.77;98493.53;4636705;30;20055;-66
2023/12/02 04:09:38;;;;;;;4.75;3.38;;;;;;;19.54;46.71;98481.16;4635498;30;20063;-66
2023/12/02 04:12:05;;;;;;;8.23;3.40;;;;;;;19.53;46.90;98477.63;4635742;30;20424;-66
2023/12/02 04:14:32;;;;;;;6.93;3.83;;;;;;;19.53;46.82;98458.84;4637183;30;20389;-66
2023/12/02 04:17:01;;;;;;;5.95;3.05;;;;;;;19.52;46.69;98447.25;4636913;30;20050;-68
2023/12/02 04:19:28;;;;;;;5.30;3.63;;;;;;;19.52;46.84;98441.88;4635225;30;20062;-69
2023/12/02 04:21:56;;;;;;;5.03;3.60;;;;;;;19.52;46.86;98454.47;4635149;30;20051;-69
2023/12/02 04:24:23;;;;;;;7.35;3.65;;;;;;;19.51;46.86;98466.25;4635478;30;20062;-68
2023/12/02 04:26:51;;;;;;;4.97;3.33;;;;;;;19.51;46.86;98444.78;4636730;30;20051;-68
2023/12/02 04:29:18;;;;;;;4.43;3.03;;;;;;;19.50;46.88;98429.69;4631858;30;20062;-69
2023/12/02 04:31:46;;;;;;;5.57;3.17;;;;;;;19.50;46.92;98452.00;4635187;30;20153;-69
2023/12/02 04:34:14;;;;;;;5.63;3.10;;;;;;;19.49;46.98;98479.88;4649277;30;20063;-69
2023/12/02 04:36:43;;;;;;;5.28;2.83;;;;;;;19.49;46.98;98511.25;4636100;30;20055;-69
2023/12/02 04:39:11;;;;;;;7.40;3.00;;;;;;;19.48;47.14;98499.66;4635246;30;20066;-69
2023/12/02 04:41:39;;;;;;;4.38;3.00;;;;;;;19.48;47.00;98521.13;4635183;30;20066;-68
2023/12/02 04:44:06;;;;;;;4.07;2.78;;;;;;;19.49;47.11;98535.38;4636992;30;20059;-69
2023/12/02 04:46:34;;;;;;;4.22;2.88;;;;;;;19.48;47.12;98542.59;4647888;30;20074;-66
2023/12/02 04:49:01;;;;;;;4.70;2.85;;;;;;;19.47;47.12;98534.72;4634933;30;20051;-66
2023/12/02 04:51:31;;;;;;;4.28;2.53;;;;;;;19.47;47.13;98538.25;4634807;30;20055;-66
2023/12/02 04:53:58;;;;;;;4.68;2.70;;;;;;;19.46;47.28;98511.59;4636906;30;20066;-66
2023/12/02 04:56:25;;;;;;;4.43;2.50;;;;;;;19.46;47.30;98501.69;4635252;30;20086;-66
2023/12/02 04:58:53;;;;;;;5.13;2.72;;;;;;;19.45;47.44;98489.31;4634688;30;20055;-66
2023/12/02 05:01:20;;;;;;;4.78;2.97;;;;;;;19.44;47.28;98460.78;4635033;30;20051;-66
2023/12/02 05:03:47;;;;;;;5.30;2.70;;;;;;;19.44;47.27;98443.88;4636890;30;20062;-66
2023/12/02 05:06:15;;;;;;;4.40;2.60;;;;;;;19.44;47.40;98419.72;4635283;30;20059;-70
2023/12/02 05:08:44;;;;;;;3.83;2.50;;;;;;;19.43;47.67;98439.53;4634404;30;20059;-69
2023/12/02 05:11:20;;;;;;;4.90;2.63;;;;;;;19.44;47.49;98470.69;4634411;30;20059;-69
2023/12/02 05:13:48;;;;;;;5.32;3.10;;;;;;;19.43;47.36;98485.16;4637434;30;20062;-69
2023/12/02 05:16:15;;;;;;;3.25;2.38;;;;;;;19.42;47.53;98484.31;4634537;30;20055;-67
2023/12/02 05:18:43;;;;;;;4.15;2.80;;;;;;;19.42;47.60;98465.53;4634436;30;20054;-67
2023/12/02 05:21:10;;;;;;;3.88;2.85;;;;;;;19.41;47.52;98496.09;4634377;30;20495;-66
2023/12/02 05:23:41;;;;;;;4.43;2.45;;;;;;;19.41;47.66;98484.53;4638444;30;20055;-67
2023/12/02 05:26:08;;;;;;;5.05;2.83;;;;;;;19.40;47.76;98446.09;4632664;30;20051;-70
2023/12/02 05:28:38;;;;;;;5.40;2.22;;;;;;;19.40;47.66;98461.38;4634998;30;20066;-69
2023/12/02 05:31:06;;;;;;;4.20;2.58;;;;;;;19.40;47.63;98501.63;4634059;30;20063;-69
2023/12/02 05:33:33;;;;;;;3.55;2.35;;;;;;;19.39;47.79;98510.69;4636988;30;20059;-69
2023/12/02 05:36:01;;;;;;;3.28;2.00;;;;;;;19.40;47.72;98521.22;4634501;30;20062;-67
2023/12/02 05:38:28;;;;;;;3.08;2.13;;;;;;;19.39;47.84;98516.88;4647305;30;20051;-66
2023/12/02 05:40:55;;;;;;;4.38;2.17;;;;;;;19.40;47.67;98513.19;4634861;30;20090;-66
2023/12/02 05:43:23;;;;;;;4.00;2.20;;;;;;;19.38;47.74;98506.34;4636398;30;20051;-66
2023/12/02 05:45:50;;;;;;;5.55;2.53;;;;;;;19.37;47.60;98508.22;4649354;30;20055;-67
2023/12/02 05:48:20;;;;;;;3.03;1.95;;;;;;;19.37;47.47;98524.31;4638164;30;20055;-67
2023/12/02 05:50:47;;;;;;;4.55;2.22;;;;;;;19.37;47.83;98518.94;4638408;30;20522;-60
2023/12/02 05:53:14;;;;;;;3.80;2.03;;;;;;;19.40;47.85;98544.53;4639838;30;20059;-66
2023/12/02 05:55:42;;;;;;;3.10;1.98;;;;;;;19.40;47.69;98542.69;4637540;30;20070;-66
2023/12/02 05:58:09;;;;;;;3.97;2.25;;;;;;;19.42;47.82;98562.13;4637627;30;20073;-69
2023/12/02 06:00:37;;;;;;;3.47;2.00;;;;;;;19.43;47.94;98562.97;4638218;30;20051;-64
2023/12/02 06:03:04;;;;;;;3.08;2.17;;;;;;;19.43;47.67;98577.19;4639584;30;20431;-64
2023/12/02 06:05:31;;;;;;;2.80;1.80;;;;;;;19.42;47.75;98591.66;4637449;30;20059;-65
2023/12/02 06:07:59;;;;;;;3.28;2.10;;;;;;;19.42;47.56;98590.81;4637524;30;20524;-66
2023/12/02 06:10:26;;;;;;;3.05;1.83;;;;;;;19.41;47.71;98610.63;4638541;30;20146;-66
2023/12/02 06:12:54;;;;;;;3.85;2.05;;;;;;;19.40;47.89;98612.44;4639230;30;20066;-65
2023/12/02 06:15:21;;;;;;;3.83;2.55;;;;;;;19.39;48.15;98634.94;4637172;30;20051;-65
2023/12/02 06:17:50;;;;;;;3.50;1.88;;;;;;;19.39;47.91;98629.56;4637091;30;20109;-65
2023/12/02 06:20:18;;;;;;;3.63;2.30;;;;;;;19.40;47.97;98646.50;4637882;30;20082;-66
2023/12/02 06:22:45;;;;;;;5.03;2.30;;;;;;;19.40;48.02;98638.44;4639041;30;20082;-65
2023/12/02 06:25:13;;;;;;;3.17;2.10;;;;;;;19.37;47.89;98626.25;4636886;30;20070;-65
2023/12/02 06:27:42;;;;;;;3.13;1.92;;;;;;;19.37;47.77;98626.25;4636992;30;20043;-65
2023/12/02 06:30:10;;;;;;;3.90;2.83;;;;;;;19.36;47.81;98646.03;4638150;30;20055;-65
2023/12/02 06:32:41;;;;;;;3.05;1.88;;;;;;;19.36;47.60;98639.84;4638711;30;20059;-66
2023/12/02 06:35:09;;;;;;;4.03;2.42;;;;;;;19.35;47.73;98648.91;4638488;30;20059;-65
2023/12/02 06:37:37;;;;;;;3.63;2.03;;;;;;;19.34;47.63;98642.72;4636833;30;20059;-64
2023/12/02 06:40:05;;;;;;;5.18;2.20;;;;;;;19.34;47.91;98652.63;4637819;30;20059;-64
2023/12/02 06:42:32;;;;;;;3.40;2.30;;;;;;;19.33;47.53;98651.78;4637855;30;20420;-64
2023/12/02 06:44:59;;;;;;;3.78;2.53;;;;;;;19.33;47.80;98630.34;4636789;30;20062;-64
2023/12/02 06:47:27;;;;;;;3.75;2.30;;;;;;;19.33;47.63;98632.19;4636638;30;20067;-65
2023/12/02 06:49:54;;;;;;;3.50;2.08;;;;;;;19.30;47.88;98614.59;4638078;30;20051;-65
2023/12/02 06:52:21;;;;;;;3.33;2.13;;;;;;;19.31;47.77;98604.69;4637811;30;20059;-65
2023/12/02 06:54:48;;;;;;;3.20;1.65;;;;;;;19.29;47.77;98599.53;4636445;30;20173;-65
2023/12/02 06:57:19;;;;;;;4.45;2.60;;;;;;;19.29;47.80;98599.53;4636751;30;20055;-64
2023/12/02 06:59:46;;;;;;;3.00;1.77;;;;;;;19.29;47.67;98602.22;4637939;30;20067;-64
2023/12/02 07:02:13;;;;;;;3.45;2.38;;;;;;;19.29;47.48;98610.25;4636056;30;20063;-64
2023/12/02 07:04:41;;;;;;;3.42;2.33;;;;;;;19.28;47.74;98611.25;4636280;30;20066;-65
2023/12/02 07:07:08;;;;;;;2.78;1.90;;;;;;;19.29;47.68;98614.78;4637062;30;20066;-65
2023/12/02 07:09:37;;;;;;;3.60;2.30;;;;;;;19.27;47.48;98623.00;4638096;30;20055;-66
2023/12/02 07:12:05;;;;;;;3.33;1.90;;;;;;;19.27;47.59;98639.94;4636898;30;20085;-65
2023/12/02 07:14:33;;;;;;;3.30;2.00;;;;;;;19.27;47.44;98625.69;4636155;30;20055;-65
2023/12/02 07:17:00;;;;;;;2.95;2.13;;;;;;;19.26;47.55;98635.59;4636557;30;20416;-64
2023/12/02 07:19:28;;;;;;;3.75;2.08;;;;;;;19.25;47.41;98639.31;4638426;30;20058;-64
2023/12/02 07:21:55;;;;;;;3.72;1.98;;;;;;;19.25;47.36;98641.16;4637289;30;20070;-64
2023/12/02 07:24:22;;;;;;;2.63;1.80;;;;;;;19.24;47.49;98653.75;4636226;30;20059;-64
2023/12/02 07:26:50;;;;;;;3.25;2.05;;;;;;;19.24;47.35;98642.16;4636119;30;20074;-64
2023/12/02 07:29:18;;;;;;;3.10;1.65;;;;;;;19.23;47.41;98651.22;4637813;30;20492;-64
2023/12/02 07:31:45;;;;;;;3.00;2.00;;;;;;;19.23;47.68;98665.47;4636825;30;20496;-64
2023/12/02 07:34:13;;;;;;;3.30;1.77;;;;;;;19.24;47.42;98664.47;4636308;30;20055;-64
2023/12/02 07:36:40;;;;;;;2.92;1.67;;;;;;;19.22;47.28;98666.47;4635905;30;20074;-64
2023/12/02 07:39:07;;;;;;;3.97;1.90;;;;;;;19.23;47.39;98668.16;4637409;30;20067;-65
2023/12/02 07:41:35;;;;;;;2.95;1.88;;;;;;;19.21;47.39;98661.31;4636509;30;20066;-65
2023/12/02 07:44:03;;;;;;;3.75;1.90;;;;;;;19.22;47.30;98654.94;4635609;30;20063;-65
2023/12/02 07:46:30;;;;;;;3.65;2.45;;;;;;;19.21;47.49;98651.41;4636012;30;20059;-65
2023/12/02 07:48:58;;;;;;;3.45;2.10;;;;;;;19.21;47.45;98653.28;4638206;30;20404;-66
2023/12/02 07:51:25;;;;;;;3.13;1.90;;;;;;;19.21;47.19;98646.06;4639679;30;20063;-65
2023/12/02 07:53:53;;;;;;;3.63;1.83;;;;;;;19.21;47.39;98651.41;4635566;30;20060;-64
2023/12/02 07:56:21;;;;;;;2.75;1.75;;;;;;;19.21;47.21;98631.81;4635416;30;20051;-65
2023/12/02 07:58:48;;;;;;;3.13;1.90;;;;;;;19.21;47.38;98623.75;4637545;30;20059;-66
2023/12/02 08:01:16;;;;;;;3.42;1.88;;;;;;;19.21;47.25;98629.13;4636228;30;20062;-66
2023/12/02 08:03:43;;;;;;;3.40;1.98;;;;;;;19.21;47.18;98624.59;4635257;30;20060;-66
2023/12/02 08:06:11;;;;;;;2.72;1.80;;;;;;;19.21;47.26;98616.53;4635520;30;20430;-65
2023/12/02 08:08:38;;;;;;;3.47;1.83;;;;;;;19.19;46.99;98607.84;4636952;30;20051;-66
2023/12/02 08:11:06;;;;;;;3.45;1.95;;;;;;;19.19;47.06;98613.19;4636332;30;20075;-66
2023/12/02 08:13:34;;;;;;;4.03;2.50;;;;;;;19.20;46.93;98611.34;4635660;30;20070;-66
2023/12/02 08:16:01;;;;;;;2.72;1.50;;;;;;;19.19;46.82;98618.56;4635300;30;20126;-64
2023/12/02 08:18:29;;;;;;;2.60;1.70;;;;;;;19.19;46.71;98631.97;4637170;30;20043;-64
2023/12/02 08:20:56;;;;;;;2.78;1.70;;;;;;;19.21;46.78;98639.84;4635764;30;20063;-64
2023/12/02 08:23:23;;;;;;;3.55;1.77;;;;;;;19.20;46.67;98643.53;4635602;30;20059;-65
2023/12/02 08:25:51;;;;;;;5.45;1.77;;;;;;;19.20;46.68;98643.53;4635265;30;20067;-66
2023/12/02 08:28:18;;;;;;;2.25;1.52;;;;;;;19.20;46.60;98646.22;4637216;30;20066;-66
2023/12/02 08:30:45;;;;;;;3.10;1.50;;;;;;;19.19;46.51;98645.38;4635673;30;20419;-66
2023/12/02 08:33:13;;;;;;;2.83;1.50;;;;;;;19.20;46.54;98647.06;4635321;30;20055;-66
2023/12/02 08:35:40;;;;;;;3.40;1.80;;;;;;;19.20;46.60;98655.13;4635310;30;20059;-65
2023/12/02 08:38:07;;;;;;;2.85;1.42;;;;;;;19.20;46.31;98652.44;4636951;30;20074;-64
2023/12/02 08:40:35;;;;;;;2.30;1.33;;;;;;;19.20;46.38;98660.50;4636222;30;20059;-64
2023/12/02 08:43:02;;;;;;;3.40;1.70;;;;;;;19.20;46.33;98657.81;4630978;30;20074;-64
2023/12/02 08:45:29;;;;;;;2.08;1.10;;;;;;;19.20;46.34;98660.50;4635266;30;20066;-65
2023/12/02 08:47:57;;;;;;;2.88;1.70;;;;;;;19.21;46.20;98655.94;4637093;30;20061;-66
2023/12/02 08:50:24;;;;;;;2.55;1.35;;;;;;;19.21;46.22;98664.00;4635819;30;20496;-66
2023/12/02 08:52:52;;;;;;;2.20;1.20;;;;;;;19.21;46.14;98664.00;4634722;30;20066;-66
2023/12/02 08:55:19;;;;;;;2.58;1.17;;;;;;;19.20;46.38;98660.50;4647555;30;20063;-65
2023/12/02 08:57:48;;;;;;;2.30;1.35;;;;;;;19.20;46.05;98665.00;4636878;30;20415;-64
2023/12/02 09:00:16;;;;;;;2.67;1.40;;;;;;;19.21;46.14;98653.28;4635847;30;20055;-65
2023/12/02 09:02:43;;;;;;;2.47;1.60;;;;;;;19.20;46.16;98647.06;4635128;30;20055;-65
2023/12/02 09:05:11;;;;;;;2.95;1.30;;;;;;;19.20;46.24;98657.81;4634577;30;20059;-68
2023/12/02 09:07:38;;;;;;;2.25;1.40;;;;;;;19.21;46.01;98642.53;4637255;30;20058;-65
2023/12/02 09:10:06;;;;;;;2.63;1.25;;;;;;;19.20;45.95;98619.38;4635791;30;20055;-66
2023/12/02 09:12:34;;;;;;;1.85;0.90;;;;;;;19.21;45.94;98604.97;4634662;30;20063;-64
2023/12/02 09:15:21;;;;;;;2.88;1.23;;;;;;;19.19;45.93;98604.31;4634741;30;20063;-64
2023/12/02 09:18:05;;;;;;;3.10;1.45;;;;;;;19.19;45.65;98633.81;4625466;30;20067;-60
2023/12/02 09:20:39;;;;;;;2.30;0.98;;;;;;;19.19;45.23;98674.88;4636359;30;20184;-61
2023/12/02 09:23:06;;;;;;;3.30;1.05;;;;;;;19.19;44.85;98692.84;4638838;30;20066;-60
2023/12/02 09:25:36;;;;;;;2.50;0.95;;;;;;;19.18;44.28;98693.88;4640794;30;20054;-65
2023/12/02 09:28:07;;;;;;;2.83;1.20;;;;;;;19.18;43.91;98699.22;4638443;30;20107;-64
2023/12/02 09:30:37;;;;;;;2.00;0.95;;;;;;;19.18;43.97;98708.09;4638202;30;20052;-58
2023/12/02 09:33:04;;;;;;;4.63;0.73;;;;;;;19.15;43.76;98713.00;4638791;30;20062;-59
2023/12/02 09:35:33;;;;;;;1.13;0.38;;;;;;;19.12;42.82;98716.91;4639562;30;20066;-61
2023/12/02 09:38:02;;;;;;;3.22;0.60;;;;;;;19.10;42.57;98707.34;4637495;30;20427;-62
2023/12/02 09:40:51;;;;;;;2.65;0.50;;;;;;;19.07;42.62;98703.16;4637805;30;20066;-60
2023/12/02 09:43:56;;;;;;;1.08;0.43;;;;;;;19.05;42.28;98699.84;4638950;30;20467;-59
2023/12/02 09:46:32;;;;;;;1.60;0.57;;;;;;;19.02;41.97;98708.25;4624177;30;20074;-59
2023/12/02 09:49:02;;;;;;;1.48;0.47;;;;;;;19.04;41.93;98711.59;4640324;30;20070;-67
2023/12/02 09:51:42;;;;;;;1.73;0.50;;;;;;;19.00;41.85;98727.22;4637589;30;20423;-66
2023/12/02 09:54:24;;;;;;;1.70;0.68;;;;;;;19.01;42.22;98710.09;4631701;30;20535;-65
2023/12/02 09:57:09;;;;;;;1.77;0.60;;;;;;;19.00;42.34;98705.75;4639796;30;20138;-62
2023/12/02 09:59:36;;;;;;;1.85;0.70;;;;;;;19.02;42.75;98692.16;4635647;30;20055;-63
2023/12/02 10:02:18;;;;;;;3.00;0.70;;;;;;;19.05;42.93;98675.72;4637416;30;20062;-64
2023/12/02 10:05:10;;;;;;;2.85;0.70;;;;;;;19.09;43.18;98676.19;4640110;30;20077;-64
2023/12/02 10:07:59;;;;;;;2.47;0.50;;;;;;;19.09;43.42;98685.06;4637103;30;20603;-64
2023/12/02 10:10:41;;;;;;;1.75;0.52;;;;;;;19.13;43.71;98688.22;4638497;30;20051;-64
2023/12/02 10:13:31;;;;;;;6.25;0.75;;;;;;;19.14;43.71;98685.34;4637451;30;20058;-64
2023/12/02 10:16:10;;;;;;;1.85;0.50;;;;;;;19.14;43.65;98679.97;4633002;30;20062;-62
2023/12/02 10:18:41;;;;;;;2.00;0.60;;;;;;;19.16;43.82;98671.75;4640787;30;20055;-62
2023/12/02 10:21:11;;;;;;;2.28;0.70;;;;;;;19.15;43.97;98662.88;4637091;30;20052;-62
2023/12/02 10:24:05;;;;;;;2.78;0.70;;;;;;;19.15;44.05;98660.19;4637005;30;20055;-62
2023/12/02 10:26:42;;;;;;;2.88;1.10;;;;;;;19.17;44.12;98663.53;4631516;30;20077;-66
2023/12/02 10:29:22;;;;;;;1.65;0.60;;;;;;;19.17;44.23;98663.53;4637388;30;20066;-65
2023/12/02 10:32:05;;;;;;;2.85;0.63;;;;;;;19.17;44.19;98660.00;4636863;30;20062;-65
2023/12/02 10:34:45;;;;;;;2.47;0.90;;;;;;;19.18;44.37;98653.63;4638605;30;20055;-65
2023/12/02 10:37:13;;;;;;;1.20;0.70;;;;;;;19.18;44.15;98630.31;4632115;30;20085;-65
2023/12/02 10:39:43;;;;;;;2.63;0.73;;;;;;;19.18;44.55;98638.38;4636655;30;20067;-65
2023/12/02 10:42:23;;;;;;;2.67;0.70;;;;;;;19.19;44.47;98639.19;4639626;30;20511;-65
2023/12/02 10:45:01;;;;;;;2.95;0.80;;;;;;;19.17;44.57;98634.03;4634815;30;20063;-65
2023/12/02 10:47:31;;;;;;;2.40;0.90;;;;;;;19.18;44.39;98641.03;4636865;30;20060;-64
2023/12/02 10:50:03;;;;;;;2.65;0.73;;;;;;;19.18;44.52;98646.41;4639201;30;20054;-63
2023/12/02 10:52:31;;;;;;;2.20;0.52;;;;;;;19.18;44.56;98643.72;4633458;30;20521;-63
2023/12/02 10:55:03;;;;;;;1.88;0.85;;;;;;;19.18;44.49;98640.22;4625470;30;20052;-63
2023/12/02 10:57:30;;;;;;;1.90;0.60;;;;;;;19.18;44.56;98659.81;4633615;30;20062;-63
2023/12/02 11:00:16;;;;;;;2.38;0.45;;;;;;;19.19;44.49;98674.06;4638646;30;20059;-63
2023/12/02 11:02:43;;;;;;;2.25;0.60;;;;;;;19.19;44.55;98690.97;4636613;30;20420;-62
2023/12/02 11:05:11;;;;;;;1.58;0.50;;;;;;;19.19;44.56;98699.03;4636358;30;20051;-63
2023/12/02 11:07:44;;;;;;;2.08;0.70;;;;;;;19.19;44.59;98708.94;4638654;30;20416;-64
2023/12/02 11:10:17;;;;;;;1.45;0.80;;;;;;;19.19;44.41;98758.03;4633177;30;20407;-65
2023/12/02 11:12:51;;;;;;;2.50;0.95;;;;;;;19.19;44.39;98762.59;4630052;30;20059;-65
2023/12/02 11:15:22;;;;;;;3.70;1.15;;;;;;;19.17;44.26;98767.31;4637170;30;20063;-65
2023/12/02 11:18:03;;;;;;;2.47;1.38;;;;;;;19.14;44.21;98781.91;4637850;30;20063;-63
2023/12/02 11:20:50;;;;;;;3.63;1.58;;;;;;;19.15;44.45;98790.78;4636205;30;20055;-63
2023/12/02 11:23:45;;;;;;;2.72;1.50;;;;;;;19.13;44.19;98801.69;4637911;30;20412;-63
2023/12/02 11:26:49;;;;;;;3.13;1.25;;;;;;;19.12;44.17;98810.75;4635259;30;20059;-64
2023/12/02 11:29:30;;;;;;;3.10;1.25;;;;;;;19.12;44.48;98826.84;4636368;30;20059;-65
2023/12/02 11:32:21;;;;;;;3.10;1.33;;;;;;;19.12;44.44;98832.22;4632396;30;20063;-64
2023/12/02 11:35:07;;;;;;;2.85;1.05;;;;;;;19.12;44.41;98861.72;4635770;30;20059;-64
2023/12/02 11:37:47;;;;;;;1.92;0.82;;;;;;;19.12;44.62;98869.78;4638921;30;20059;-62
2023/12/02 11:40:22;;;;;;;1.92;0.90;;;;;;;19.11;44.73;98876.13;4629041;30;20496;-62
2023/12/02 11:43:06;;;;;;;2.45;0.98;;;;;;;19.12;44.35;98879.63;4635705;30;20055;-62
2023/12/02 11:45:39;;;;;;;2.03;0.82;;;;;;;19.12;44.61;98883.19;4632711;30;20055;-62